Time;durP1;ratioP1;P1;durP2;ratioP2;P2;SDS_P1;SDS_P2;PMS_P1;PMS_P2;Temp;Humidity;BMP_temperature;BMP_pressure;BME280_temperature;BME280_humidity;BME280_pressure;Samples;Min_cycle;Max_cycle;Signal;HPM_P1;HPM_P2
2022/12/06 00:01:28;;;;;;;;;;;;;;;;;;6077986;23;20345;-95
2022/12/06 00:03:53;;;;;;;;;;;;;;;;;;6077808;23;19912;-95
2022/12/06 00:06:19;;;;;;;;;;;;;;;;;;6077605;23;19920;-95
2022/12/06 00:08:46;;;;;;;;;;;;;;;;;;6077583;23;19953;-94
2022/12/06 00:11:12;;;;;;;;;;;;;;;;;;6101653;23;19912;-96
2022/12/06 00:13:38;;;;;;;;;;;;;;;;;;6077608;23;19913;-95
2022/12/06 00:16:04;;;;;;;;;;;;;;;;;;6101749;23;19962;-94
2022/12/06 00:18:30;;;;;;;;;;;;;;;;;;6103036;23;19917;-95
2022/12/06 00:20:56;;;;;;;;;;;;;;;;;;6103134;23;19921;-95
2022/12/06 00:23:21;;;;;;;;;;;;;;;;;;6103710;23;19959;-95
2022/12/06 00:25:47;;;;;;;;;;;;;;;;;;6103582;23;19948;-94
2022/12/06 00:28:13;;;;;;;;;;;;;;;;;;6103516;23;19988;-95
2022/12/06 00:30:39;;;;;;;;;;;;;;;;;;6102952;23;19996;-95
2022/12/06 00:33:05;;;;;;;;;;;;;;;;;;6103785;23;19995;-95
2022/12/06 00:35:31;;;;;;;;;;;;;;;;;;6103707;23;19987;-95
2022/12/06 00:37:57;;;;;;;;;;;;;;;;;;6103546;23;20410;-95
2022/12/06 00:40:23;;;;;;;;;;;;;;;;;;6102787;23;19917;-95
2022/12/06 00:42:49;;;;;;;;;;;;;;;;;;6103507;23;19912;-95
2022/12/06 00:45:14;;;;;;;;;;;;;;;;;;6103494;23;19912;-96
2022/12/06 00:47:40;;;;;;;;;;;;;;;;;;6103454;23;20363;-95
2022/12/06 00:50:06;;;;;;;;;;;;;;;;;;6102887;23;19912;-95
2022/12/06 00:52:32;;;;;;;;;;;;;;;;;;6103364;23;19913;-95
2022/12/06 00:54:58;;;;;;;;;;;;;;;;;;6103150;23;19913;-95
2022/12/06 00:57:24;;;;;;;;;;;;;;;;;;6103239;23;19913;-95
2022/12/06 00:59:50;;;;;;;;;;;;;;;;;;6102770;23;19927;-95
2022/12/06 01:02:16;;;;;;;;;;;;;;;;;;6103212;23;19913;-96
2022/12/06 01:04:42;;;;;;;;;;;;;;;;;;6103072;23;19912;-95
2022/12/06 01:07:08;;;;;;;;;;;;;;;;;;6103189;23;19984;-96
2022/12/06 01:09:34;;;;;;;;;;;;;;;;;;6102678;23;19917;-96
2022/12/06 01:12:00;;;;;;;;;;;;;;;;;;6103408;23;20071;-96
2022/12/06 01:14:26;;;;;;;;;;;;;;;;;;6121458;23;20312;-95
2022/12/06 01:16:51;;;;;;;;;;;;;;;;;;6127642;23;19943;-95
2022/12/06 01:19:17;;;;;;;;;;;;;;;;;;6127117;23;19959;-96
2022/12/06 01:21:43;;;;;;;;;;;;;;;;;;6127531;23;19912;-95
2022/12/06 01:24:09;;;;;;;;;;;;;;;;;;6127812;23;19941;-95
2022/12/06 01:26:35;;;;;;;;;;;;;;;;;;6127478;23;19964;-95
2022/12/06 01:29:01;;;;;;;;;;;;;;;;;;6126669;23;20003;-96
2022/12/06 01:31:27;;;;;;;;;;;;;;;;;;6127462;23;20324;-95
2022/12/06 01:33:53;;;;;;;;;;;;;;;;;;6127402;23;19984;-96
2022/12/06 01:36:19;;;;;;;;;;;;;;;;;;6127615;23;19973;-96
2022/12/06 01:38:45;;;;;;;;;;;;;;;;;;6127353;23;19912;-96
2022/12/06 01:41:11;;;;;;;;;;;;;;;;;;6127024;23;20386;-96
2022/12/06 01:43:37;;;;;;;;;;;;;;;;;;6127818;23;19920;-96
2022/12/06 01:46:02;;;;;;;;;;;;;;;;;;6127334;23;20335;-95
2022/12/06 01:48:28;;;;;;;;;;;;;;;;;;6127313;23;19913;-95
2022/12/06 01:50:54;;;;;;;;;;;;;;;;;;6126843;23;20385;-96
2022/12/06 01:53:21;;;;;;;;;;;;;;;;;;6127203;23;19952;-95
2022/12/06 01:55:47;;;;;;;;;;;;;;;;;;6127249;23;20010;-95
2022/12/06 01:58:14;;;;;;;;;;;;;;;;;;6127302;23;19913;-96
2022/12/06 02:00:40;;;;;;;;;;;;;;;;;;6126510;23;19960;-94
2022/12/06 02:03:06;;;;;;;;;;;;;;;;;;6127175;23;20513;-95
2022/12/06 02:05:31;;;;;;;;;;;;;;;;;;6126960;23;19967;-95
2022/12/06 02:07:57;;;;;;;;;;;;;;;;;;6127153;23;19913;-95
2022/12/06 02:10:23;;;;;;;;;;;;;;;;;;6126729;23;19912;-95
2022/12/06 02:12:49;;;;;;;;;;;;;;;;;;6126918;23;20315;-96
2022/12/06 02:15:15;;;;;;;;;;;;;;;;;;6078469;23;19913;-95
2022/12/06 02:17:41;;;;;;;;;;;;;;;;;;6078481;23;19921;-95
2022/12/06 02:20:07;;;;;;;;;;;;;;;;;;6077969;23;19939;-95
2022/12/06 02:22:33;;;;;;;;;;;;;;;;;;6078581;23;19913;-95
2022/12/06 02:24:59;;;;;;;;;;;;;;;;;;6078548;23;20302;-95
2022/12/06 02:27:26;;;;;;;;;;;;;;;;;;6078529;23;19919;-95
2022/12/06 02:29:51;;;;;;;;;;;;;;;;;;6078383;23;19916;-96
2022/12/06 02:32:18;;;;;;;;;;;;;;;;;;6078534;23;19963;-96
2022/12/06 02:34:43;;;;;;;;;;;;;;;;;;6078722;23;19913;-95
2022/12/06 02:37:09;;;;;;;;;;;;;;;;;;6078608;23;19912;-96
2022/12/06 02:39:35;;;;;;;;;;;;;;;;;;6077940;23;19939;-94
2022/12/06 02:42:01;;;;;;;;;;;;;;;;;;6077987;23;19913;-95
2022/12/06 02:44:27;;;;;;;;;;;;;;;;;;6078247;23;20406;-95
2022/12/06 02:46:53;;;;;;;;;;;;;;;;;;6078168;23;19913;-94
2022/12/06 02:49:19;;;;;;;;;;;;;;;;;;6077663;23;19932;-95
2022/12/06 02:51:46;;;;;;;;;;;;;;;;;;6078499;23;19962;-95
2022/12/06 02:54:12;;;;;;;;;;;;;;;;;;6078794;23;20323;-94
2022/12/06 02:56:38;;;;;;;;;;;;;;;;;;6078287;23;19999;-95
2022/12/06 02:59:04;;;;;;;;;;;;;;;;;;6077693;23;19959;-95
2022/12/06 03:01:30;;;;;;;;;;;;;;;;;;6078286;23;19988;-95
2022/12/06 03:03:56;;;;;;;;;;;;;;;;;;6078137;23;19944;-95
2022/12/06 03:06:22;;;;;;;;;;;;;;;;;;6078289;23;19964;-95
2022/12/06 03:08:48;;;;;;;;;;;;;;;;;;6077811;23;19917;-96
2022/12/06 03:11:14;;;;;;;;;;;;;;;;;;6078205;23;19987;-95
2022/12/06 03:13:39;;;;;;;;;;;;;;;;;;6077978;23;19991;-95
2022/12/06 03:16:05;;;;;;;;;;;;;;;;;;6101961;23;19948;-95
2022/12/06 03:18:31;;;;;;;;;;;;;;;;;;6102064;23;19960;-95
2022/12/06 03:20:57;;;;;;;;;;;;;;;;;;6101385;23;19924;-96
2022/12/06 03:23:23;;;;;;;;;;;;;;;;;;6102354;23;20324;-96
2022/12/06 03:25:49;;;;;;;;;;;;;;;;;;6102058;23;19921;-95
2022/12/06 03:28:15;;;;;;;;;;;;;;;;;;6102119;23;20411;-96
2022/12/06 03:30:41;;;;;;;;;;;;;;;;;;6101615;23;19912;-95
2022/12/06 03:33:07;;;;;;;;;;;;;;;;;;6102110;23;19913;-96
2022/12/06 03:35:33;;;;;;;;;;;;;;;;;;6102129;23;19913;-95
2022/12/06 03:37:59;;;;;;;;;;;;;;;;;;6102361;23;19913;-96
2022/12/06 03:40:24;;;;;;;;;;;;;;;;;;6101729;23;19917;-95
2022/12/06 03:42:50;;;;;;;;;;;;;;;;;;6102287;23;19917;-96
2022/12/06 03:45:16;;;;;;;;;;;;;;;;;;6101890;23;19913;-96
2022/12/06 03:47:42;;;;;;;;;;;;;;;;;;6102152;23;20448;-96
2022/12/06 03:50:08;;;;;;;;;;;;;;;;;;6101732;23;19967;-96
2022/12/06 03:52:34;;;;;;;;;;;;;;;;;;6102394;23;19919;-95
2022/12/06 03:55:00;;;;;;;;;;;;;;;;;;6102170;23;19960;-96
2022/12/06 03:57:26;;;;;;;;;;;;;;;;;;6101763;23;20358;-96
2022/12/06 03:59:52;;;;;;;;;;;;;;;;;;6101163;23;20323;-96
2022/12/06 04:02:18;;;;;;;;;;;;;;;;;;6101961;23;19913;-95
2022/12/06 04:04:44;;;;;;;;;;;;;;;;;;6102024;23;19916;-96
2022/12/06 04:07:10;;;;;;;;;;;;;;;;;;6101735;23;20246;-96
2022/12/06 04:09:51;;;;;;;;;;;;;;;;;;6101478;23;19944;-95
2022/12/06 04:15:01;;;;;;;;;;;;;;;;;;6101673;23;20319;-96
2022/12/06 04:20:12;;;;;;;;;;;;;;;;;;6101114;23;19916;-96
2022/12/06 04:25:23;;;;;;;;;;;;;;;;;;6101657;23;19919;-95
2022/12/06 04:38:48;;;;;;;;;;;;;;;;;;6014485;23;19914;-96
2022/12/06 04:43:58;;;;;;;;;;;;;;;;;;6101572;23;19913;-96
2022/12/06 04:46:24;;;;;;;;;;;;;;;;;;6101492;23;19937;-96
2022/12/06 04:48:51;;;;;;;;;;;;;;;;;;6101291;23;19921;-94
2022/12/06 04:51:17;;;;;;;;;;;;;;;;;;6101641;23;19919;-94
2022/12/06 04:53:43;;;;;;;;;;;;;;;;;;6101474;23;20255;-95
2022/12/06 04:56:08;;;;;;;;;;;;;;;;;;6101683;23;19913;-96
2022/12/06 04:58:34;;;;;;;;;;;;;;;;;;6101452;23;19916;-94
2022/12/06 05:01:00;;;;;;;;;;;;;;;;;;6101110;23;20548;-95
2022/12/06 05:03:26;;;;;;;;;;;;;;;;;;6099183;23;20007;-94
2022/12/06 05:05:52;;;;;;;;;;;;;;;;;;6102194;23;19948;-95
2022/12/06 05:08:18;;;;;;;;;;;;;;;;;;6102529;23;19920;-96
2022/12/06 05:10:44;;;;;;;;;;;;;;;;;;6101845;23;19917;-94
2022/12/06 05:13:10;;;;;;;;;;;;;;;;;;6105733;23;19913;-95
2022/12/06 05:15:36;;;;;;;;;;;;;;;;;;6127051;23;20279;-94
2022/12/06 05:18:02;;;;;;;;;;;;;;;;;;6126857;23;19913;-95
2022/12/06 05:20:28;;;;;;;;;;;;;;;;;;6126148;23;19917;-95
2022/12/06 05:22:53;;;;;;;;;;;;;;;;;;6126780;23;20323;-96
2022/12/06 05:25:19;;;;;;;;;;;;;;;;;;6126850;23;19913;-96
2022/12/06 05:27:45;;;;;;;;;;;;;;;;;;6126677;23;19940;-95
2022/12/06 05:30:11;;;;;;;;;;;;;;;;;;6126305;23;20522;-95
2022/12/06 05:32:37;;;;;;;;;;;;;;;;;;6126854;23;19913;-95
2022/12/06 05:35:03;;;;;;;;;;;;;;;;;;6127006;23;19912;-95
2022/12/06 05:37:29;;;;;;;;;;;;;;;;;;6126512;23;20555;-95
2022/12/06 05:39:55;;;;;;;;;;;;;;;;;;6126009;23;19952;-95
2022/12/06 05:42:21;;;;;;;;;;;;;;;;;;6126716;23;19924;-94
2022/12/06 05:44:47;;;;;;;;;;;;;;;;;;6126436;23;19919;-94
2022/12/06 05:47:13;;;;;;;;;;;;;;;;;;6126592;23;19988;-96
2022/12/06 05:49:39;;;;;;;;;;;;;;;;;;6125654;23;19913;-95
2022/12/06 05:52:05;;;;;;;;;;;;;;;;;;6126196;23;19913;-94
2022/12/06 05:54:31;;;;;;;;;;;;;;;;;;6126249;23;19916;-95
2022/12/06 05:56:57;;;;;;;;;;;;;;;;;;6126283;23;20030;-96
2022/12/06 06:02:08;;;;;;;;;;;;;;;;;;6151021;23;19920;-95
2022/12/06 06:04:34;;;;;;;;;;;;;;;;;;6126175;23;20327;-95
2022/12/06 06:07:00;;;;;;;;;;;;;;;;;;6126274;23;20342;-95
2022/12/06 06:09:26;;;;;;;;;;;;;;;;;;6126088;23;19916;-94
2022/12/06 06:11:52;;;;;;;;;;;;;;;;;;6126195;23;19919;-95
2022/12/06 06:14:18;;;;;;;;;;;;;;;;;;6109111;23;19913;-93
2022/12/06 06:16:44;;;;;;;;;;;;;;;;;;6101548;23;20251;-95
2022/12/06 06:19:10;;;;;;;;;;;;;;;;;;6100888;23;19967;-94
2022/12/06 06:21:35;;;;;;;;;;;;;;;;;;6101979;23;20334;-96
2022/12/06 06:24:01;;;;;;;;;;;;;;;;;;6101654;23;19948;-95
2022/12/06 06:26:28;;;;;;;;;;;;;;;;;;6101828;23;20279;-95
2022/12/06 06:28:54;;;;;;;;;;;;;;;;;;6101335;23;19913;-95
2022/12/06 06:31:20;;;;;;;;;;;;;;;;;;6101708;23;19912;-94
2022/12/06 06:33:46;;;;;;;;;;;;;;;;;;6101755;23;19936;-95
2022/12/06 06:36:12;;;;;;;;;;;;;;;;;;6101714;23;19912;-95
2022/12/06 06:38:38;;;;;;;;;;;;;;;;;;6101554;23;19916;-95
2022/12/06 06:41:04;;;;;;;;;;;;;;;;;;6100847;23;19916;-96
2022/12/06 06:43:30;;;;;;;;;;;;;;;;;;6101545;23;20250;-95
2022/12/06 06:45:55;;;;;;;;;;;;;;;;;;6101100;23;19923;-95
2022/12/06 06:48:22;;;;;;;;;;;;;;;;;;6101189;23;19945;-96
2022/12/06 06:50:47;;;;;;;;;;;;;;;;;;6100902;23;19920;-95
2022/12/06 06:53:13;;;;;;;;;;;;;;;;;;6101516;23;20331;-95
2022/12/06 06:55:39;;;;;;;;;;;;;;;;;;6101272;23;19922;-95
2022/12/06 06:58:05;;;;;;;;;;;;;;;;;;6101472;23;19996;-96
2022/12/06 07:00:31;;;;;;;;;;;;;;;;;;6100472;23;19960;-96
2022/12/06 07:02:57;;;;;;;;;;;;;;;;;;6101437;23;19912;-96
2022/12/06 07:05:23;;;;;;;;;;;;;;;;;;6101121;23;19992;-95
2022/12/06 07:07:49;;;;;;;;;;;;;;;;;;6101199;23;19912;-96
2022/12/06 07:10:15;;;;;;;;;;;;;;;;;;6100284;23;19944;-96
2022/12/06 07:12:41;;;;;;;;;;;;;;;;;;6100707;23;19944;-95
2022/12/06 07:15:07;;;;;;;;;;;;;;;;;;6076753;23;19944;-95
2022/12/06 07:17:32;;;;;;;;;;;;;;;;;;6076661;23;19984;-96
2022/12/06 07:19:59;;;;;;;;;;;;;;;;;;6077384;23;20000;-95
2022/12/06 07:22:25;;;;;;;;;;;;;;;;;;6077231;23;19968;-94
2022/12/06 07:24:51;;;;;;;;;;;;;;;;;;6077056;23;19916;-96
2022/12/06 07:27:17;;;;;;;;;;;;;;;;;;6076584;23;19920;-95
2022/12/06 07:29:42;;;;;;;;;;;;;;;;;;6077454;23;20327;-96
2022/12/06 07:32:08;;;;;;;;;;;;;;;;;;6077675;23;19913;-95
2022/12/06 07:34:42;;;;;;;;;;;;;;;;;;6077353;23;19917;-95
2022/12/06 07:37:08;;;;;;;;;;;;;;;;;;6078589;23;19984;-95
2022/12/06 07:39:34;;;;;;;;;;;;;;;;;;6076556;23;19956;-93
2022/12/06 07:45:00;;;;;;;;;;;;;;;;;;6101345;23;19913;-91
2022/12/06 07:47:26;;;;;;;;;;;;;;;;;;6077373;23;19920;-96
2022/12/06 07:49:52;;;;;;;;;;;;;;;;;;6076425;23;19913;-93
2022/12/06 07:52:19;;;;;;;;;;;;;;;;;;6077137;23;20335;-92
2022/12/06 07:54:45;;;;;;;;;;;;;;;;;;6076950;23;20302;-94
2022/12/06 07:57:11;;;;;;;;;;;;;;;;;;6077271;23;19955;-94
2022/12/06 07:59:37;;;;;;;;;;;;;;;;;;6077185;23;20000;-94
2022/12/06 08:02:03;;;;;;;;;;;;;;;;;;6077414;23;19975;-94
2022/12/06 08:04:29;;;;;;;;;;;;;;;;;;6077615;23;19913;-93
2022/12/06 08:09:23;;;;;;;;;;;;;;;;;;6100780;23;19913;-93
2022/12/06 08:11:49;;;;;;;;;;;;;;;;;;6077601;23;19920;-94
2022/12/06 08:14:15;;;;;;;;;;;;;;;;;;6102341;23;19916;-90
2022/12/06 08:16:41;;;;;;;;;;;;;;;;;;6102956;23;19923;-95
2022/12/06 08:19:07;;;;;;;;;;;;;;;;;;6102491;23;19912;-94
2022/12/06 08:21:33;;;;;;;;;;;;;;;;;;6100658;23;19912;-93
2022/12/06 08:23:59;;;;;;;;;;;;;;;;;;6103794;23;19913;-94
2022/12/06 08:26:25;;;;;;;;;;;;;;;;;;6102356;23;19919;-96
2022/12/06 08:28:53;;;;;;;;;;;;;;;;;;6101064;23;19924;-96
2022/12/06 08:31:19;;;;;;;;;;;;;;;;;;6103044;23;19945;-95
2022/12/06 08:33:45;;;;;;;;;;;;;;;;;;6100775;23;19920;-93
2022/12/06 08:36:11;;;;;;;;;;;;;;;;;;6100228;23;19944;-90
2022/12/06 08:38:37;;;;;;;;;;;;;;;;;;6100585;23;19947;-92
2022/12/06 08:41:03;;;;;;;;;;;;;;;;;;6101531;23;19916;-92
2022/12/06 08:43:29;;;;;;;;;;;;;;;;;;6102295;23;20335;-92
2022/12/06 08:45:56;;;;;;;;;;;;;;;;;;6102407;23;19912;-93
2022/12/06 08:48:22;;;;;;;;;;;;;;;;;;6103332;23;19984;-94
2022/12/06 08:50:48;;;;;;;;;;;;;;;;;;6102112;23;19944;-95
2022/12/06 08:53:13;;;;;;;;;;;;;;;;;;6102164;23;20232;-91
2022/12/06 08:55:40;;;;;;;;;;;;;;;;;;6102088;23;20295;-91
2022/12/06 08:58:06;;;;;;;;;;;;;;;;;;6102306;23;19913;-91
2022/12/06 09:00:32;;;;;;;;;;;;;;;;;;6101166;23;19971;-91
2022/12/06 09:02:58;;;;;;;;;;;;;;;;;;6101684;23;19988;-93
2022/12/06 09:05:31;;;;;;;;;;;;;;;;;;6102265;23;19980;-92
2022/12/06 09:07:57;;;;;;;;;;;;;;;;;;6102410;23;19912;-93
2022/12/06 09:10:39;;;;;;;;;;;;;;;;;;6100850;23;19913;-93
2022/12/06 09:13:19;;;;;;;;;;;;;;;;;;6106492;23;19924;-95
2022/12/06 09:15:45;;;;;;;;;;;;;;;;;;6106024;23;19913;-94
2022/12/06 09:20:41;;;;;;;;;;;;;;;;;;6101850;23;20000;-95
2022/12/06 09:23:08;;;;;;;;;;;;;;;;;;6078328;23;19938;-96
2022/12/06 09:25:43;;;;;;;;;;;;;;;;;;6078292;23;19984;-94
2022/12/06 09:28:09;;;;;;;;;;;;;;;;;;6078276;23;19912;-96
2022/12/06 09:30:41;;;;;;;;;;;;;;;;;;6082891;23;19904;-96
2022/12/06 09:33:07;;;;;;;;;;;;;;;;;;6079672;23;19916;-94
2022/12/06 09:38:25;;;;;;;;;;;;;;;;;;6102873;23;20294;-95
2022/12/06 09:40:53;;;;;;;;;;;;;;;;;;6102472;23;19920;-93
2022/12/06 09:43:19;;;;;;;;;;;;;;;;;;6077702;23;19961;-94
2022/12/06 09:45:45;;;;;;;;;;;;;;;;;;6079529;23;19937;-95
2022/12/06 09:48:11;;;;;;;;;;;;;;;;;;6078911;23;19924;-93
2022/12/06 09:50:37;;;;;;;;;;;;;;;;;;6101125;23;19919;-93
2022/12/06 09:53:03;;;;;;;;;;;;;;;;;;6077645;23;19913;-92
2022/12/06 09:55:29;;;;;;;;;;;;;;;;;;6101438;23;19912;-92
2022/12/06 09:58:04;;;;;;;;;;;;;;;;;;6077333;23;20334;-93
2022/12/06 10:00:30;;;;;;;;;;;;;;;;;;6077051;23;19920;-93
2022/12/06 10:02:56;;;;;;;;;;;;;;;;;;6078105;23;19920;-94
2022/12/06 10:05:22;;;;;;;;;;;;;;;;;;6079103;23;19940;-96
2022/12/06 10:07:52;;;;;;;;;;;;;;;;;;6076738;23;19944;-96
2022/12/06 10:10:21;;;;;;;;;;;;;;;;;;6077477;23;19916;-96
2022/12/06 10:12:47;;;;;;;;;;;;;;;;;;6077043;23;19913;-95
2022/12/06 10:18:08;;;;;;;;;;;;;;;;;;6015020;23;19913;-92
2022/12/06 10:20:36;;;;;;;;;;;;;;;;;;6069483;23;19921;-95
2022/12/06 10:23:04;;;;;;;;;;;;;;;;;;6102241;23;19913;-94
2022/12/06 10:25:30;;;;;;;;;;;;;;;;;;6102796;23;19920;-94
2022/12/06 10:33:48;;;;;;;;;;;;;;;;;;6135718;23;19915;-94
2022/12/06 10:36:16;;;;;;;;;;;;;;;;;;6100554;23;20247;-95
2022/12/06 10:38:50;;;;;;;;;;;;;;;;;;6101381;23;20580;-93
2022/12/06 10:41:25;;;;;;;;;;;;;;;;;;6100906;23;19924;-94
2022/12/06 10:43:51;;;;;;;;;;;;;;;;;;6101010;23;20022;-95
2022/12/06 10:49:06;;;;;;;;;;;;;;;;;;6101420;23;19912;-94
2022/12/06 10:51:32;;;;;;;;;;;;;;;;;;6101756;23;19913;-95
2022/12/06 10:53:58;;;;;;;;;;;;;;;;;;6100805;23;19913;-96
2022/12/06 10:56:24;;;;;;;;;;;;;;;;;;6100512;23;20335;-95
2022/12/06 10:58:49;;;;;;;;;;;;;;;;;;6100354;23;19913;-94
2022/12/06 11:01:15;;;;;;;;;;;;;;;;;;6100879;23;19967;-95
2022/12/06 11:03:41;;;;;;;;;;;;;;;;;;6100841;23;20301;-95
2022/12/06 11:06:07;;;;;;;;;;;;;;;;;;6100904;23;19912;-95
2022/12/06 11:08:33;;;;;;;;;;;;;;;;;;6101117;23;19944;-95
2022/12/06 11:10:59;;;;;;;;;;;;;;;;;;6100545;23;20346;-96
2022/12/06 11:13:25;;;;;;;;;;;;;;;;;;6101202;23;19984;-96
2022/12/06 11:15:51;;;;;;;;;;;;;;;;;;6121513;23;19983;-96
2022/12/06 11:18:17;;;;;;;;;;;;;;;;;;6125348;23;20427;-96
2022/12/06 11:20:43;;;;;;;;;;;;;;;;;;6124620;23;19932;-96
2022/12/06 11:23:08;;;;;;;;;;;;;;;;;;6125495;23;19913;-96
2022/12/06 11:25:35;;;;;;;;;;;;;;;;;;6124968;23;19919;-95
2022/12/06 11:28:01;;;;;;;;;;;;;;;;;;6125173;23;19924;-96
2022/12/06 11:30:27;;;;;;;;;;;;;;;;;;6124844;23;19920;-95
2022/12/06 11:32:54;;;;;;;;;;;;;;;;;;6125244;23;20331;-96
2022/12/06 11:35:20;;;;;;;;;;;;;;;;;;6125369;23;19912;-95
2022/12/06 11:37:46;;;;;;;;;;;;;;;;;;6124472;23;20390;-93
2022/12/06 11:40:12;;;;;;;;;;;;;;;;;;6123888;23;19921;-93
2022/12/06 11:42:43;;;;;;;;;;;;;;;;;;6124869;23;19913;-96
2022/12/06 11:45:09;;;;;;;;;;;;;;;;;;6125275;23;19917;-96
2022/12/06 11:47:34;;;;;;;;;;;;;;;;;;6124964;23;19919;-95
2022/12/06 11:50:00;;;;;;;;;;;;;;;;;;6124466;23;20335;-95
2022/12/06 11:52:26;;;;;;;;;;;;;;;;;;6125346;23;20351;-95
2022/12/06 11:54:52;;;;;;;;;;;;;;;;;;6125231;23;19920;-95
2022/12/06 11:57:18;;;;;;;;;;;;;;;;;;6125361;23;19961;-94
2022/12/06 11:59:44;;;;;;;;;;;;;;;;;;6124526;23;19924;-95
2022/12/06 12:02:15;;;;;;;;;;;;;;;;;;6125378;23;19920;-92
2022/12/06 12:04:41;;;;;;;;;;;;;;;;;;6124748;23;19916;-90
2022/12/06 12:07:07;;;;;;;;;;;;;;;;;;6123897;23;19987;-91
2022/12/06 12:09:33;;;;;;;;;;;;;;;;;;6124337;23;20355;-93
2022/12/06 12:11:59;;;;;;;;;;;;;;;;;;6124808;23;19987;-91
2022/12/06 12:14:25;;;;;;;;;;;;;;;;;;6122649;23;19955;-94
2022/12/06 12:16:51;;;;;;;;;;;;;;;;;;6078530;23;19917;-91
2022/12/06 12:19:17;;;;;;;;;;;;;;;;;;6077185;23;20283;-92
2022/12/06 12:21:43;;;;;;;;;;;;;;;;;;6078069;23;19919;-92
2022/12/06 12:24:09;;;;;;;;;;;;;;;;;;6078165;23;19932;-91
2022/12/06 12:26:35;;;;;;;;;;;;;;;;;;6078137;23;20254;-91
2022/12/06 12:29:18;;;;;;;;;;;;;;;;;;6077028;23;20101;-91
2022/12/06 12:31:44;;;;;;;;;;;;;;;;;;6102412;23;19920;-95
2022/12/06 12:34:10;;;;;;;;;;;;;;;;;;6078339;23;19953;-93
2022/12/06 12:39:09;;;;;;;;;;;;;;;;;;6101887;23;19967;-96
2022/12/06 12:44:06;;;;;;;;;;;;;;;;;;6102572;23;19913;-95
2022/12/06 12:49:08;;;;;;;;;;;;;;;;;;6145622;23;19938;-95
2022/12/06 12:51:37;;;;;;;;;;;;;;;;;;6150299;23;19927;-96
2022/12/06 12:54:03;;;;;;;;;;;;;;;;;;6154186;23;19915;-96
2022/12/06 12:56:32;;;;;;;;;;;;;;;;;;6201764;23;20334;-96
2022/12/06 12:58:59;;;;;;;;;;;;;;;;;;6183588;23;19930;-96
2022/12/06 13:01:25;;;;;;;;;;;;;;;;;;6142179;23;19920;-96
2022/12/06 13:03:55;;;;;;;;;;;;;;;;;;6137853;23;19912;-94
2022/12/06 13:06:21;;;;;;;;;;;;;;;;;;6138889;23;19966;-94
2022/12/06 13:09:03;;;;;;;;;;;;;;;;;;6135625;23;19912;-90
2022/12/06 13:11:29;;;;;;;;;;;;;;;;;;6136252;23;19912;-93
2022/12/06 13:13:55;;;;;;;;;;;;;;;;;;6135771;23;19991;-92
2022/12/06 13:16:25;;;;;;;;;;;;;;;;;;6136275;23;19970;-93
2022/12/06 13:18:51;;;;;;;;;;;;;;;;;;6135720;23;19912;-92
2022/12/06 13:21:17;;;;;;;;;;;;;;;;;;6135521;23;19955;-93
2022/12/06 13:23:48;;;;;;;;;;;;;;;;;;6135819;23;19919;-94
2022/12/06 13:26:14;;;;;;;;;;;;;;;;;;6136356;23;19920;-95
2022/12/06 13:28:42;;;;;;;;;;;;;;;;;;6136542;23;19912;-94
2022/12/06 13:31:08;;;;;;;;;;;;;;;;;;6135455;23;19959;-96
2022/12/06 13:33:42;;;;;;;;;;;;;;;;;;6135947;23;19916;-96
2022/12/06 13:36:08;;;;;;;;;;;;;;;;;;6136880;23;19916;-94
2022/12/06 13:38:34;;;;;;;;;;;;;;;;;;6138793;23;19995;-95
2022/12/06 13:41:12;;;;;;;;;;;;;;;;;;6135976;23;20405;-96
2022/12/06 13:43:52;;;;;;;;;;;;;;;;;;6136137;23;19913;-96
2022/12/06 13:46:27;;;;;;;;;;;;;;;;;;6139798;23;19919;-94
2022/12/06 13:48:59;;;;;;;;;;;;;;;;;;6135610;23;19970;-94
2022/12/06 13:51:36;;;;;;;;;;;;;;;;;;6135697;23;19916;-95
2022/12/06 13:54:05;;;;;;;;;;;;;;;;;;6138366;23;19916;-96
2022/12/06 13:57:04;;;;;;;;;;;;;;;;;;6189671;23;19912;-91
2022/12/06 13:59:52;;;;;;;;;;;;;;;;;;6210031;23;19931;-95
2022/12/06 14:02:21;;;;;;;;;;;;;;;;;;6152039;23;20285;-96
2022/12/06 14:04:48;;;;;;;;;;;;;;;;;;6145418;23;20322;-96
2022/12/06 14:07:15;;;;;;;;;;;;;;;;;;6153315;23;19922;-95
2022/12/06 14:09:41;;;;;;;;;;;;;;;;;;6157264;23;19916;-93
2022/12/06 14:12:11;;;;;;;;;;;;;;;;;;6181915;23;19912;-95
2022/12/06 14:14:47;;;;;;;;;;;;;;;;;;6156520;23;19952;-94
2022/12/06 14:17:19;;;;;;;;;;;;;;;;;;6156482;23;19912;-96
2022/12/06 14:19:45;;;;;;;;;;;;;;;;;;6153820;23;19931;-96
2022/12/06 14:22:12;;;;;;;;;;;;;;;;;;6144682;23;19916;-93
2022/12/06 14:24:42;;;;;;;;;;;;;;;;;;6156791;23;19943;-95
2022/12/06 14:27:38;;;;;;;;;;;;;;;;;;6207791;23;19931;-96
2022/12/06 14:30:08;;;;;;;;;;;;;;;;;;6155713;23;19913;-95
2022/12/06 14:33:12;;;;;;;;;;;;;;;;;;6209495;23;19914;-93
2022/12/06 14:35:41;;;;;;;;;;;;;;;;;;6184009;23;19923;-92
2022/12/06 14:38:29;;;;;;;;;;;;;;;;;;6183277;23;19916;-92
2022/12/06 14:43:55;;;;;;;;;;;;;;;;;;6182885;23;19931;-93
2022/12/06 14:47:00;;;;;;;;;;;;;;;;;;6209289;23;19952;-95
2022/12/06 14:52:16;;;;;;;;;;;;;;;;;;6180732;23;19897;-95
2022/12/06 14:54:42;;;;;;;;;;;;;;;;;;6181461;23;19936;-95
2022/12/06 14:57:24;;;;;;;;;;;;;;;;;;6184452;23;19900;-95
2022/12/06 15:00:06;;;;;;;;;;;;;;;;;;6180019;23;19919;-96
2022/12/06 15:02:33;;;;;;;;;;;;;;;;;;6182207;23;19923;-92
2022/12/06 15:05:10;;;;;;;;;;;;;;;;;;6203746;23;19942;-95
2022/12/06 15:07:52;;;;;;;;;;;;;;;;;;6206678;23;19900;-95
2022/12/06 15:10:24;;;;;;;;;;;;;;;;;;6181567;23;19946;-94
2022/12/06 15:15:48;;;;;;;;;;;;;;;;;;6165209;23;19917;-95
2022/12/06 15:21:05;;;;;;;;;;;;;;;;;;6113438;23;19916;-89
2022/12/06 15:23:32;;;;;;;;;;;;;;;;;;6113515;23;19913;-90
2022/12/06 15:26:01;;;;;;;;;;;;;;;;;;6104468;23;19913;-93
2022/12/06 15:28:29;;;;;;;;;;;;;;;;;;6100996;23;19975;-92
2022/12/06 15:30:55;;;;;;;;;;;;;;;;;;6100476;23;19916;-93
2022/12/06 15:33:21;;;;;;;;;;;;;;;;;;6100411;23;19971;-92
2022/12/06 15:35:47;;;;;;;;;;;;;;;;;;6099714;23;19912;-92
2022/12/06 15:38:13;;;;;;;;;;;;;;;;;;6100887;23;19963;-92
2022/12/06 15:40:39;;;;;;;;;;;;;;;;;;6100394;23;19928;-94
2022/12/06 15:43:09;;;;;;;;;;;;;;;;;;6100876;23;19916;-93
2022/12/06 15:45:37;;;;;;;;;;;;;;;;;;6099960;23;19963;-93
2022/12/06 15:48:03;;;;;;;;;;;;;;;;;;6100285;23;19913;-94
2022/12/06 15:53:12;;;;;;;;;;;;;;;;;;6100106;23;19992;-93
2022/12/06 15:55:38;;;;;;;;;;;;;;;;;;6098927;23;20349;-94
2022/12/06 15:58:03;;;;;;;;;;;;;;;;;;6097572;23;19949;-94
2022/12/06 16:00:29;;;;;;;;;;;;;;;;;;6101011;23;19996;-93
2022/12/06 16:02:55;;;;;;;;;;;;;;;;;;6100644;23;19980;-92
2022/12/06 16:05:32;;;;;;;;;;;;;;;;;;6100522;23;19998;-92
2022/12/06 16:07:58;;;;;;;;;;;;;;;;;;6100466;23;20020;-94
2022/12/06 16:10:25;;;;;;;;;;;;;;;;;;6098764;23;19940;-90
2022/12/06 16:15:36;;;;;;;;;;;;;;;;;;6123397;23;19912;-95
2022/12/06 16:18:05;;;;;;;;;;;;;;;;;;6152680;23;19901;-95
2022/12/06 16:20:31;;;;;;;;;;;;;;;;;;6125680;23;19923;-95
2022/12/06 16:25:41;;;;;;;;;;;;;;;;;;6136283;23;20414;-94
2022/12/06 16:28:07;;;;;;;;;;;;;;;;;;6123731;23;19924;-90
2022/12/06 16:30:33;;;;;;;;;;;;;;;;;;6117503;23;19916;-95
2022/12/06 16:32:59;;;;;;;;;;;;;;;;;;6119066;23;19939;-96
2022/12/06 16:35:31;;;;;;;;;;;;;;;;;;6142176;23;19913;-93
2022/12/06 16:37:57;;;;;;;;;;;;;;;;;;6125308;23;19913;-94
2022/12/06 16:40:23;;;;;;;;;;;;;;;;;;6126122;23;19920;-96
2022/12/06 16:42:49;;;;;;;;;;;;;;;;;;6127034;23;19916;-94
2022/12/06 16:45:32;;;;;;;;;;;;;;;;;;6173237;23;20427;-95
2022/12/06 16:48:08;;;;;;;;;;;;;;;;;;6139252;23;19917;-90
2022/12/06 16:50:34;;;;;;;;;;;;;;;;;;6117244;23;19917;-92
2022/12/06 16:53:00;;;;;;;;;;;;;;;;;;6121102;23;19936;-95
2022/12/06 16:55:27;;;;;;;;;;;;;;;;;;6119288;23;19939;-90
2022/12/06 16:57:53;;;;;;;;;;;;;;;;;;6124827;23;19900;-92
2022/12/06 17:00:29;;;;;;;;;;;;;;;;;;6171123;23;20372;-93
2022/12/06 17:02:55;;;;;;;;;;;;;;;;;;6127347;23;19912;-90
2022/12/06 17:05:21;;;;;;;;;;;;;;;;;;6153106;23;19913;-93
2022/12/06 17:07:50;;;;;;;;;;;;;;;;;;6155126;23;19982;-91
2022/12/06 17:10:19;;;;;;;;;;;;;;;;;;6155256;23;19916;-95
2022/12/06 17:13:01;;;;;;;;;;;;;;;;;;6140507;23;19913;-94
2022/12/06 17:15:36;;;;;;;;;;;;;;;;;;6181780;23;19983;-92
2022/12/06 17:18:11;;;;;;;;;;;;;;;;;;6130623;23;19917;-91
2022/12/06 17:20:41;;;;;;;;;;;;;;;;;;6154338;23;19901;-89
2022/12/06 17:23:23;;;;;;;;;;;;;;;;;;6153670;23;19904;-91
2022/12/06 17:26:19;;;;;;;;;;;;;;;;;;6084305;23;19919;-91
2022/12/06 17:28:54;;;;;;;;;;;;;;;;;;6154297;23;19913;-89
2022/12/06 17:31:57;;;;;;;;;;;;;;;;;;6161391;23;20247;-91
2022/12/06 17:34:46;;;;;;;;;;;;;;;;;;6153688;23;19927;-90
2022/12/06 17:37:31;;;;;;;;;;;;;;;;;;6157716;23;20327;-94
2022/12/06 17:40:11;;;;;;;;;;;;;;;;;;6151911;23;19928;-91
2022/12/06 17:42:59;;;;;;;;;;;;;;;;;;6154844;23;19915;-90
2022/12/06 17:45:25;;;;;;;;;;;;;;;;;;6130772;23;19913;-89
2022/12/06 17:47:52;;;;;;;;;;;;;;;;;;6149528;23;19915;-92
2022/12/06 17:50:22;;;;;;;;;;;;;;;;;;6153421;23;19900;-96
2022/12/06 17:52:51;;;;;;;;;;;;;;;;;;6151419;23;19912;-94
2022/12/06 17:55:20;;;;;;;;;;;;;;;;;;6127489;23;19973;-94
2022/12/06 17:57:46;;;;;;;;;;;;;;;;;;6124157;23;20109;-94
2022/12/06 18:00:21;;;;;;;;;;;;;;;;;;6127470;23;19916;-93
2022/12/06 18:02:57;;;;;;;;;;;;;;;;;;6139980;23;20389;-93
2022/12/06 18:05:23;;;;;;;;;;;;;;;;;;6106309;23;19912;-93